createdAt,value
2022-11-29T00:02:07.772Z,29.10
2022-11-29T00:04:39.868Z,30.30
2022-11-29T00:07:12.377Z,42.70
2022-11-29T00:09:45.565Z,34.00
2022-11-29T00:12:18.667Z,41.90
2022-11-29T00:14:52.847Z,35.60
2022-11-29T00:17:25.854Z,32.40
2022-11-29T00:20:00.165Z,40.70
2022-11-29T00:22:35.142Z,28.10
2022-11-29T00:25:09.341Z,32.10
2022-11-29T00:27:45.506Z,35.90
2022-11-29T00:30:18.456Z,39.40
2022-11-29T00:32:52.722Z,35.60
2022-11-29T00:35:25.162Z,41.80
2022-11-29T00:37:57.156Z,42.40
2022-11-29T00:40:36.618Z,36.80
2022-11-29T00:43:10.277Z,40.40
2022-11-29T00:45:44.735Z,42.80
2022-11-29T00:48:16.371Z,41.10
2022-11-29T00:50:50.157Z,37.20
2022-11-29T00:53:23.062Z,37.80
2022-11-29T00:55:58.716Z,32.50
2022-11-29T00:58:31.318Z,35.50
2022-11-29T01:01:09.918Z,35.60
2022-11-29T01:03:45.193Z,41.00
2022-11-29T01:06:18.798Z,32.40
2022-11-29T01:08:51.766Z,36.90
2022-11-29T01:11:40.153Z,42.10
2022-11-29T01:14:18.941Z,31.60
2022-11-29T01:16:55.450Z,34.10
2022-11-29T01:19:28.850Z,30.40
2022-11-29T01:22:04.009Z,29.00
2022-11-29T01:24:38.169Z,31.70
2022-11-29T01:27:13.519Z,36.20
2022-11-29T01:29:45.700Z,35.10
2022-11-29T01:32:33.689Z,39.60
2022-11-29T01:35:09.306Z,40.50
2022-11-29T01:37:42.711Z,31.20
2022-11-29T01:40:17.020Z,41.50
2022-11-29T01:42:52.186Z,34.40
2022-11-29T01:45:36.610Z,40.50
2022-11-29T01:48:15.656Z,37.80
2022-11-29T01:50:51.944Z,34.20
2022-11-29T01:53:23.939Z,40.40
2022-11-29T01:55:58.893Z,40.00
2022-11-29T01:58:36.387Z,46.40
2022-11-29T02:01:10.155Z,32.30
2022-11-29T02:03:42.340Z,37.30
2022-11-29T02:06:17.510Z,37.40
2022-11-29T02:08:50.074Z,36.20
2022-11-29T02:11:55.620Z,29.30
2022-11-29T02:14:43.856Z,31.20
2022-11-29T02:17:29.786Z,33.00
2022-11-29T02:24:11.955Z,29.70
2022-11-29T02:27:34.382Z,28.80
2022-11-29T02:34:07.936Z,37.70
2022-11-29T02:37:14.258Z,36.40
2022-11-29T02:39:58.034Z,23.90
2022-11-29T02:43:00.283Z,23.80
2022-11-29T02:45:42.756Z,30.00
2022-11-29T02:48:40.858Z,24.10
2022-11-29T02:51:23.531Z,26.40
2022-11-29T02:54:03.739Z,37.90
2022-11-29T02:56:42.076Z,32.00
2022-11-29T02:59:23.069Z,34.90
2022-11-29T03:02:06.589Z,23.10
2022-11-29T03:04:47.495Z,29.20
2022-11-29T03:07:25.066Z,36.20
2022-11-29T03:10:04.470Z,35.70
2022-11-29T03:12:44.611Z,29.80
2022-11-29T03:15:27.984Z,30.80
2022-11-29T03:18:14.428Z,31.70
2022-11-29T03:20:57.486Z,30.00
2022-11-29T03:23:37.018Z,31.40
2022-11-29T03:26:11.810Z,29.20
2022-11-29T03:28:49.586Z,32.70
2022-11-29T03:31:28.408Z,38.50
2022-11-29T03:34:10.231Z,30.40
2022-11-29T03:36:52.793Z,33.30
2022-11-29T03:39:30.245Z,32.40
2022-11-29T03:42:03.191Z,35.50
2022-11-29T03:44:40.952Z,31.50
2022-11-29T03:47:14.517Z,37.30
2022-11-29T03:50:14.049Z,46.60
2022-11-29T03:52:53.995Z,28.40
2022-11-29T03:55:50.075Z,26.70
2022-11-29T03:58:33.778Z,28.00
2022-11-29T04:01:28.154Z,31.80
2022-11-29T04:04:24.426Z,25.30
2022-11-29T04:07:16.349Z,32.70
2022-11-29T04:10:04.344Z,26.70
2022-11-29T04:13:10.310Z,22.20
2022-11-29T04:16:16.888Z,24.30
2022-11-29T04:19:26.693Z,27.50
2022-11-29T04:22:20.726Z,21.40
2022-11-29T04:25:23.435Z,20.70
2022-11-29T04:28:20.794Z,25.50
2022-11-29T04:31:02.160Z,23.90
2022-11-29T04:33:57.051Z,22.90
2022-11-29T04:36:50.957Z,24.20
2022-11-29T04:40:01.589Z,23.50
2022-11-29T04:42:54.653Z,21.10
2022-11-29T04:45:53.747Z,23.00
2022-11-29T04:48:44.230Z,24.80
2022-11-29T04:51:28.492Z,26.00
2022-11-29T04:54:10.449Z,24.20
2022-11-29T04:56:51.889Z,22.20
2022-11-29T04:59:39.774Z,20.90
2022-11-29T05:02:27.918Z,22.90
2022-11-29T05:05:15.679Z,24.40
2022-11-29T05:08:03.298Z,20.50
2022-11-29T05:10:41.438Z,22.70
2022-11-29T05:13:19.984Z,25.90
2022-11-29T05:16:09.621Z,22.60
2022-11-29T05:18:58.888Z,24.60
2022-11-29T05:21:40.023Z,22.00
2022-11-29T05:24:23.140Z,23.10
2022-11-29T05:27:04.878Z,17.60
2022-11-29T05:29:44.717Z,22.80
2022-11-29T05:32:29.971Z,23.60
2022-11-29T05:35:51.500Z,19.30
2022-11-29T05:38:40.299Z,27.90
2022-11-29T05:41:34.291Z,21.10
2022-11-29T05:44:19.889Z,24.20
2022-11-29T05:46:59.325Z,21.50
2022-11-29T05:49:44.308Z,27.10
2022-11-29T05:52:27.363Z,23.90
2022-11-29T05:55:18.741Z,17.00
2022-11-29T05:58:01.670Z,22.20
2022-11-29T06:00:50.825Z,24.30
2022-11-29T06:03:32.406Z,25.20
2022-11-29T06:06:12.698Z,24.00
2022-11-29T06:08:55.033Z,21.90
2022-11-29T06:11:34.576Z,25.90
2022-11-29T06:14:21.283Z,26.80
2022-11-29T06:17:20.139Z,22.80
2022-11-29T06:20:09.575Z,22.70
2022-11-29T06:22:56.834Z,21.80
2022-11-29T06:26:03.500Z,26.90
2022-11-29T06:28:45.299Z,23.30
2022-11-29T06:31:22.120Z,19.00
2022-11-29T06:34:02.088Z,19.50
2022-11-29T06:36:39.734Z,22.70
2022-11-29T06:39:13.624Z,23.20
2022-11-29T06:41:47.197Z,28.70
2022-11-29T06:44:19.550Z,21.50
2022-11-29T06:47:00.857Z,24.20
2022-11-29T06:49:38.859Z,21.40
2022-11-29T06:52:29.665Z,18.90
2022-11-29T06:55:11.968Z,22.40
2022-11-29T06:58:09.761Z,22.00
2022-11-29T07:00:51.933Z,26.70
2022-11-29T07:04:26.231Z,24.20
2022-11-29T07:06:59.334Z,23.00
2022-11-29T07:09:36.638Z,28.60
2022-11-29T07:12:09.835Z,24.10
2022-11-29T07:14:44.365Z,20.20
2022-11-29T07:17:25.309Z,26.80
2022-11-29T07:20:04.158Z,25.80
2022-11-29T07:22:51.537Z,25.00
2022-11-29T07:25:35.886Z,25.90
2022-11-29T07:28:23.464Z,23.60
2022-11-29T07:33:42.638Z,22.80
2022-11-29T07:36:22.872Z,23.80
2022-11-29T07:39:05.077Z,23.90
2022-11-29T07:41:49.157Z,24.70
2022-11-29T07:44:34.362Z,23.90
2022-11-29T07:47:06.594Z,24.90
2022-11-29T07:49:41.800Z,25.60
2022-11-29T07:52:27.049Z,26.80
2022-11-29T07:55:08.714Z,22.80
2022-11-29T07:57:47.588Z,23.30
